Time;durP1;ratioP1;P1;durP2;ratioP2;P2;SDS_P1;SDS_P2;PMS_P1;PMS_P2;Temp;Humidity;BMP_temperature;BMP_pressure;BME280_temperature;BME280_humidity;BME280_pressure;Samples;Min_cycle;Max_cycle;Signal;HPM_P1;HPM_P2
2022/03/12 00:00:07;;;;;;;6.20;3.60;;;;;;;-0.56;49.54;101345.20;105740;1273;73015;-70
2022/03/12 00:02:34;;;;;;;6.10;3.00;;;;;;;-0.63;49.85;101344.39;106233;1271;59732;-72
2022/03/12 00:05:09;;;;;;;5.80;3.80;;;;;;;-0.65;49.59;101344.70;106152;1271;60721;-69
2022/03/12 00:07:41;;;;;;;9.00;4.00;;;;;;;-0.64;49.38;101352.26;105715;1271;72094;-70
2022/03/12 00:10:15;;;;;;;11.40;4.00;;;;;;;-0.57;49.16;101353.63;105832;1271;72362;-72
2022/03/12 00:12:42;;;;;;;6.50;3.40;;;;;;;-0.46;48.39;101352.48;105521;1273;73166;-69
2022/03/12 00:15:12;;;;;;;7.50;3.40;;;;;;;-0.36;48.30;101346.18;104605;1271;60250;-71
2022/03/12 00:17:43;;;;;;;6.10;3.20;;;;;;;-0.27;47.75;101351.55;105549;1271;61054;-70
2022/03/12 00:20:22;;;;;;;8.90;3.30;;;;;;;-0.22;47.83;101355.77;105774;1271;74376;-70
2022/03/12 00:22:51;;;;;;;8.80;4.50;;;;;;;-0.17;47.48;101355.88;105537;1271;71040;-70
2022/03/12 00:25:21;;;;;;;9.40;4.00;;;;;;;-0.15;47.38;101348.42;105782;1271;72142;-70
2022/03/12 00:27:50;;;;;;;8.30;4.50;;;;;;;-0.13;47.30;101346.06;105685;1270;59583;-70
2022/03/12 00:30:21;;;;;;;7.70;3.70;;;;;;;-0.13;47.49;101343.09;105780;1271;60625;-71
2022/03/12 00:32:50;;;;;;;8.00;4.50;;;;;;;-0.14;47.53;101343.53;105797;1271;72215;-70
2022/03/12 00:35:18;;;;;;;9.40;4.30;;;;;;;-0.18;47.86;101340.26;105871;1273;71441;-71
2022/03/12 00:37:45;;;;;;;13.00;4.60;;;;;;;-0.21;47.98;101341.83;105728;1271;72761;-68
2022/03/12 00:40:14;;;;;;;7.20;4.10;;;;;;;-0.26;47.95;101341.92;105695;1271;60145;-72
2022/03/12 00:42:46;;;;;;;10.90;3.40;;;;;;;-0.34;48.57;101341.36;105844;1274;59645;-70
2022/03/12 00:45:15;;;;;;;8.10;3.50;;;;;;;-0.41;49.09;101344.90;105761;1272;71797;-70
2022/03/12 00:47:43;;;;;;;6.10;3.40;;;;;;;-0.51;49.32;101344.23;105576;1271;72591;-71
2022/03/12 00:50:10;;;;;;;9.70;3.90;;;;;;;-0.62;49.55;101341.20;105867;1271;72981;-71
2022/03/12 00:53:28;;;;;;;17.00;4.40;;;;;;;-0.72;49.81;101337.48;105904;1271;59704;-68
2022/03/12 00:56:12;;;;;;;7.00;3.90;;;;;;;-0.88;50.45;101337.10;106015;1271;59825;-66
2022/03/12 00:58:45;;;;;;;6.20;3.10;;;;;;;-0.98;50.75;101334.02;105933;1271;73435;-71
2022/03/12 01:01:18;;;;;;;8.40;4.40;;;;;;;-1.07;50.92;101334.35;105790;1271;69979;-70
2022/03/12 01:03:56;;;;;;;6.00;3.50;;;;;;;-1.14;50.67;101332.27;105714;1271;73865;-72
2022/03/12 01:07:33;;;;;;;5.60;2.50;;;;;;;-1.21;50.88;101331.97;105886;1271;59771;-70
2022/03/12 01:10:12;;;;;;;9.00;4.20;;;;;;;-1.28;51.10;101334.59;105641;1273;61832;-71
2022/03/12 01:12:52;;;;;;;7.00;3.20;;;;;;;-1.33;51.24;101335.21;105850;1271;74442;-72
2022/03/12 01:15:25;;;;;;;7.80;3.80;;;;;;;-1.35;51.04;101335.88;106352;1271;70022;-70
2022/03/12 01:18:02;;;;;;;7.60;3.70;;;;;;;-1.38;51.22;101338.10;105650;1271;71853;-72
2022/03/12 01:20:50;;;;;;;7.50;3.00;;;;;;;-1.42;51.23;101335.35;105485;1271;61799;-68
2022/03/12 01:23:21;;;;;;;5.50;3.10;;;;;;;-1.47;51.63;101334.25;105926;1273;60384;-69
2022/03/12 01:25:52;;;;;;;6.60;3.80;;;;;;;-1.48;52.01;101340.36;105456;1271;73353;-70
2022/03/12 01:28:19;;;;;;;6.80;3.30;;;;;;;-1.49;52.18;101334.00;105553;1273;72607;-71
2022/03/12 01:30:45;;;;;;;5.30;3.10;;;;;;;-1.49;52.36;101334.35;105739;1271;73207;-72
2022/03/12 01:33:12;;;;;;;7.40;3.80;;;;;;;-1.50;52.70;101333.35;105526;1271;61641;-70
2022/03/12 01:35:39;;;;;;;6.60;3.10;;;;;;;-1.51;52.59;101330.97;105668;1271;59637;-70
2022/03/12 01:38:07;;;;;;;8.10;3.90;;;;;;;-1.53;52.77;101325.36;105674;1273;74424;-72
2022/03/12 01:40:51;;;;;;;9.00;4.10;;;;;;;-1.54;53.05;101322.33;105795;1271;72470;-71
2022/03/12 01:43:27;;;;;;;9.00;3.70;;;;;;;-1.56;52.95;101315.29;105537;1271;71868;-72
2022/03/12 01:45:55;;;;;;;6.20;3.60;;;;;;;-1.57;53.00;101308.94;105550;1271;60808;-71
2022/03/12 01:48:23;;;;;;;8.10;3.20;;;;;;;-1.57;52.92;101310.15;105540;1271;59765;-72
2022/03/12 01:50:50;;;;;;;5.50;3.50;;;;;;;-1.59;53.04;101302.10;105349;1271;73437;-70
2022/03/12 01:53:16;;;;;;;6.70;3.40;;;;;;;-1.55;52.81;101308.49;105410;1273;61853;-74
2022/03/12 01:55:53;;;;;;;8.50;4.20;;;;;;;-1.54;52.88;101307.56;105583;1271;72767;-70
2022/03/12 01:58:21;;;;;;;8.00;4.00;;;;;;;-1.55;52.55;101309.69;105644;1274;60761;-71
2022/03/12 02:00:50;;;;;;;7.50;3.20;;;;;;;-1.59;52.62;101305.22;105542;1271;60489;-71
2022/03/12 02:03:26;;;;;;;11.50;3.40;;;;;;;-1.65;52.42;101306.59;105734;1271;74331;-70
2022/03/12 02:05:53;;;;;;;10.30;3.60;;;;;;;-1.73;52.69;101303.86;105488;1271;72613;-70
2022/03/12 02:08:19;;;;;;;5.60;3.20;;;;;;;-1.79;52.71;101297.27;106443;1261;72919;-73
2022/03/12 02:10:48;;;;;;;7.90;3.40;;;;;;;-1.88;53.18;101297.68;108471;1264;58425;-71
2022/03/12 02:13:15;;;;;;;8.30;3.40;;;;;;;-1.95;53.53;101298.23;108489;1273;60355;-71
2022/03/12 02:15:41;;;;;;;7.70;3.80;;;;;;;-2.00;53.59;101297.29;108530;1271;74950;-73
2022/03/12 02:18:09;;;;;;;4.40;2.70;;;;;;;-2.05;53.61;101294.44;108487;1273;72449;-71
2022/03/12 02:21:11;;;;;;;7.80;3.50;;;;;;;-2.11;53.75;101294.38;108505;1272;73407;-73
2022/03/12 02:24:09;;;;;;;9.00;3.10;;;;;;;-2.13;53.80;101292.05;108394;1272;59347;-73
2022/03/12 02:26:38;;;;;;;5.80;2.60;;;;;;;-2.14;53.99;101284.99;108529;1272;61795;-73
2022/03/12 02:29:09;;;;;;;10.90;3.90;;;;;;;-2.14;54.13;101283.81;108464;1272;74542;-72
2022/03/12 02:31:48;;;;;;;7.00;3.50;;;;;;;-2.15;54.37;101280.03;108546;1272;72467;-73
2022/03/12 02:34:21;;;;;;;9.20;3.00;;;;;;;-2.15;54.60;101283.48;108435;1273;73968;-74
2022/03/12 02:36:50;;;;;;;8.20;3.30;;;;;;;-2.16;54.38;101280.93;108498;1272;60627;-72
2022/03/12 02:39:40;;;;;;;8.20;2.50;;;;;;;-2.17;54.23;101274.94;108493;1273;60557;-72
2022/03/12 02:42:08;;;;;;;7.70;2.60;;;;;;;-2.18;54.37;101275.72;108356;1273;74161;-73
2022/03/12 02:44:35;;;;;;;4.60;2.90;;;;;;;-2.20;54.44;101272.35;108422;1273;72557;-74
2022/03/12 02:47:15;;;;;;;8.90;4.10;;;;;;;-2.24;54.21;101280.51;108495;1272;72953;-72
2022/03/12 02:49:48;;;;;;;7.60;2.80;;;;;;;-2.28;54.11;101285.55;108430;1272;60437;-73
2022/03/12 02:52:19;;;;;;;7.40;3.90;;;;;;;-2.33;54.44;101289.13;108435;1272;61033;-74
2022/03/12 02:54:47;;;;;;;5.40;2.90;;;;;;;-2.40;54.54;101288.56;108391;1273;75152;-73
2022/03/12 02:57:15;;;;;;;8.10;3.10;;;;;;;-2.46;54.64;101293.41;108447;1273;72445;-75
2022/03/12 02:59:43;;;;;;;7.10;2.60;;;;;;;-2.52;54.68;101299.06;108308;1273;72849;-74
2022/03/12 03:02:12;;;;;;;6.30;3.30;;;;;;;-2.58;54.90;101290.50;108491;1273;61853;-76
2022/03/12 03:04:40;;;;;;;5.30;2.40;;;;;;;-2.63;54.93;101296.48;108466;1273;59522;-73
2022/03/12 03:07:09;;;;;;;8.50;3.90;;;;;;;-2.67;55.31;101287.15;108457;1273;73058;-73
2022/03/12 03:09:35;;;;;;;7.70;4.00;;;;;;;-2.71;55.35;101282.83;108412;1271;73254;-74
2022/03/12 03:12:07;;;;;;;8.70;3.40;;;;;;;-2.72;55.33;101284.98;108509;1271;74196;-73
2022/03/12 03:14:33;;;;;;;7.80;3.90;;;;;;;-2.74;55.30;101284.72;108277;1272;60325;-75
2022/03/12 03:17:01;;;;;;;7.20;4.10;;;;;;;-2.77;55.27;101289.17;108544;1271;61660;-72
2022/03/12 03:19:28;;;;;;;6.70;2.90;;;;;;;-2.80;55.24;101290.55;108453;1273;74601;-74
2022/03/12 03:21:57;;;;;;;5.50;3.00;;;;;;;-2.82;55.42;101289.63;108553;1271;72401;-72
2022/03/12 03:24:25;;;;;;;9.80;3.80;;;;;;;-2.85;55.86;101288.35;108507;1272;71940;-72
2022/03/12 03:26:59;;;;;;;8.00;3.20;;;;;;;-2.86;55.91;101285.29;108434;1273;60051;-73
2022/03/12 03:29:30;;;;;;;7.60;3.80;;;;;;;-2.87;56.09;101284.99;108477;1272;60335;-74
2022/03/12 03:32:02;;;;;;;7.90;2.90;;;;;;;-2.89;56.15;101280.41;108500;1273;74170;-73
2022/03/12 03:34:33;;;;;;;4.40;2.30;;;;;;;-2.90;56.25;101283.90;108499;1272;71642;-73
2022/03/12 03:37:00;;;;;;;9.90;2.90;;;;;;;-2.91;56.06;101286.90;108344;1264;73976;-73
2022/03/12 03:39:26;;;;;;;6.70;2.90;;;;;;;-2.91;55.97;101287.98;108423;1264;63045;-73
2022/03/12 03:42:19;;;;;;;5.80;2.50;;;;;;;-2.93;56.02;101290.11;108513;1273;59348;-73
2022/03/12 03:44:46;;;;;;;5.70;3.50;;;;;;;-2.95;56.11;101296.11;108178;1273;73157;-73
2022/03/12 03:47:13;;;;;;;6.50;3.10;;;;;;;-2.98;56.12;101294.35;108486;1273;71431;-73
2022/03/12 03:49:40;;;;;;;7.80;4.00;;;;;;;-3.00;56.00;101298.94;108376;1273;73175;-73
2022/03/12 03:52:16;;;;;;;5.00;2.60;;;;;;;-3.01;55.85;101302.27;108461;1273;60816;-73
2022/03/12 03:54:42;;;;;;;7.10;2.90;;;;;;;-3.01;55.84;101298.14;108472;1273;60704;-72
2022/03/12 03:57:14;;;;;;;5.10;2.30;;;;;;;-3.03;55.99;101290.59;108378;1274;74090;-72
2022/03/12 03:59:41;;;;;;;4.10;1.80;;;;;;;-3.02;56.32;101290.38;108474;1273;72623;-72
2022/03/12 04:02:07;;;;;;;6.50;2.70;;;;;;;-2.99;56.26;101297.02;108448;1273;73152;-72
2022/03/12 04:04:38;;;;;;;7.40;3.40;;;;;;;-2.96;56.03;101298.73;108436;1273;60699;-72
2022/03/12 04:07:14;;;;;;;8.20;3.40;;;;;;;-2.93;55.61;101303.31;108369;1274;60600;-72
2022/03/12 04:09:41;;;;;;;4.40;3.00;;;;;;;-2.92;55.57;101307.06;108370;1262;73878;-72
2022/03/12 04:12:17;;;;;;;5.70;2.60;;;;;;;-2.93;55.59;101308.64;108439;1273;72449;-73
2022/03/12 04:14:44;;;;;;;4.90;2.50;;;;;;;-2.93;55.79;101307.45;108446;1273;73483;-73
2022/03/12 04:17:12;;;;;;;7.30;2.90;;;;;;;-2.93;55.77;101308.11;108465;1273;60637;-73
2022/03/12 04:19:39;;;;;;;5.60;2.50;;;;;;;-2.91;55.66;101305.23;108462;1273;62215;-72
2022/03/12 04:22:18;;;;;;;6.30;3.60;;;;;;;-2.88;55.44;101303.89;108491;1273;73682;-72
2022/03/12 04:24:54;;;;;;;5.20;1.90;;;;;;;-2.86;55.26;101306.05;108243;1273;72170;-72
2022/03/12 04:27:22;;;;;;;5.80;2.90;;;;;;;-2.84;55.09;101305.83;108495;1273;74105;-72
2022/03/12 04:29:49;;;;;;;7.70;2.40;;;;;;;-2.84;55.01;101309.27;108483;1273;60691;-72
2022/03/12 04:32:16;;;;;;;5.30;2.30;;;;;;;-2.84;54.90;101312.73;108272;1273;60439;-72
2022/03/12 04:34:43;;;;;;;4.60;2.70;;;;;;;-2.84;54.87;101311.67;108460;1273;73857;-72
2022/03/12 04:37:09;;;;;;;7.90;3.90;;;;;;;-2.83;54.88;101315.96;108469;1273;58327;-72
2022/03/12 04:39:36;;;;;;;7.10;3.00;;;;;;;-2.83;54.94;101317.36;108522;1272;72047;-73
2022/03/12 04:42:03;;;;;;;5.20;2.40;;;;;;;-2.83;54.97;101311.30;108392;1273;61774;-72
2022/03/12 04:44:29;;;;;;;7.40;3.00;;;;;;;-2.82;55.05;101306.77;108535;1273;61542;-72
2022/03/12 04:46:56;;;;;;;6.00;2.70;;;;;;;-2.79;54.79;101305.23;108452;1273;57622;-72
2022/03/12 04:49:23;;;;;;;6.80;3.20;;;;;;;-2.78;54.64;101313.33;108453;1273;71535;-73
2022/03/12 04:51:52;;;;;;;5.70;3.00;;;;;;;-2.77;54.46;101317.73;108382;1274;73974;-73
2022/03/12 04:54:18;;;;;;;5.80;2.90;;;;;;;-2.75;54.42;101327.69;108391;1274;60667;-72
2022/03/12 04:56:49;;;;;;;7.30;3.00;;;;;;;-2.74;54.38;101332.34;108454;1273;60623;-74
2022/03/12 04:59:16;;;;;;;3.70;2.20;;;;;;;-2.73;54.49;101329.70;108394;1274;74303;-73
2022/03/12 05:01:42;;;;;;;6.00;2.40;;;;;;;-2.73;54.62;101323.45;108468;1273;71347;-72
2022/03/12 05:04:09;;;;;;;10.90;3.30;;;;;;;-2.74;54.65;101322.79;108410;1274;72942;-73
2022/03/12 05:06:37;;;;;;;7.00;2.50;;;;;;;-2.74;54.61;101321.94;108424;1273;60686;-73
2022/03/12 05:09:05;;;;;;;3.20;2.10;;;;;;;-2.74;54.89;101308.95;108452;1273;58547;-73
2022/03/12 05:11:38;;;;;;;7.40;3.00;;;;;;;-2.73;54.90;101310.44;108345;1276;74095;-73
2022/03/12 05:14:10;;;;;;;6.10;3.30;;;;;;;-2.70;54.71;101322.59;108391;1274;71495;-73
2022/03/12 05:16:38;;;;;;;7.40;3.30;;;;;;;-2.69;54.69;101323.61;108394;1274;72960;-73
2022/03/12 05:19:06;;;;;;;8.30;3.50;;;;;;;-2.70;54.71;101323.64;108378;1274;60508;-73
2022/03/12 05:21:33;;;;;;;7.80;3.00;;;;;;;-2.72;55.02;101327.20;108186;1276;61971;-73
2022/03/12 05:23:59;;;;;;;6.80;3.20;;;;;;;-2.73;55.07;101321.55;108417;1274;73264;-72
2022/03/12 05:26:26;;;;;;;6.20;2.70;;;;;;;-2.74;54.85;101326.95;108310;1276;71380;-73
2022/03/12 05:28:53;;;;;;;4.20;2.30;;;;;;;-2.74;54.55;101329.55;108413;1274;73040;-72
2022/03/12 05:31:20;;;;;;;6.80;2.40;;;;;;;-2.73;54.25;101330.52;108408;1274;60518;-73
2022/03/12 05:33:47;;;;;;;5.80;2.50;;;;;;;-2.69;53.97;101337.27;108324;1276;57661;-73
2022/03/12 05:36:14;;;;;;;4.10;1.80;;;;;;;-2.64;53.65;101346.05;108379;1274;73056;-73
2022/03/12 05:38:41;;;;;;;6.10;2.40;;;;;;;-2.58;53.28;101347.84;108444;1274;71384;-73
2022/03/12 05:41:11;;;;;;;4.90;2.30;;;;;;;-2.52;53.07;101350.30;108367;1276;73926;-73
2022/03/12 05:43:56;;;;;;;8.80;2.70;;;;;;;-2.47;52.87;101353.34;108360;1274;60630;-73
2022/03/12 05:46:22;;;;;;;3.20;1.70;;;;;;;-2.42;52.72;101356.41;108402;1274;60562;-74
2022/03/12 05:48:49;;;;;;;4.10;2.30;;;;;;;-2.38;52.84;101362.81;108381;1274;75198;-71
2022/03/12 05:51:16;;;;;;;6.20;2.50;;;;;;;-2.33;52.75;101363.77;108402;1274;58420;-72
2022/03/12 05:53:49;;;;;;;6.80;2.90;;;;;;;-2.30;52.70;101360.30;108381;1274;73141;-71
2022/03/12 05:56:16;;;;;;;8.00;3.10;;;;;;;-2.26;52.75;101364.45;108396;1274;60604;-72
2022/03/12 05:58:43;;;;;;;7.80;2.60;;;;;;;-2.24;53.10;101359.50;108248;1275;59278;-72
2022/03/12 06:01:10;;;;;;;6.20;2.30;;;;;;;-2.22;53.54;101360.30;108394;1274;74096;-72
2022/03/12 06:03:37;;;;;;;5.60;2.60;;;;;;;-2.19;53.32;101369.00;108258;1275;70469;-72
2022/03/12 06:06:07;;;;;;;11.50;2.60;;;;;;;-2.16;53.10;101368.47;108417;1274;74187;-72
2022/03/12 06:08:34;;;;;;;4.40;1.90;;;;;;;-2.11;52.94;101372.56;108352;1274;61589;-72
2022/03/12 06:11:01;;;;;;;8.20;3.50;;;;;;;-2.06;52.94;101371.06;108475;1273;60528;-72
2022/03/12 06:13:43;;;;;;;6.70;2.50;;;;;;;-1.97;52.63;101369.10;108460;1273;72996;-72
2022/03/12 06:16:11;;;;;;;6.20;2.30;;;;;;;-1.87;52.28;101370.80;108125;1273;72204;-72
2022/03/12 06:18:38;;;;;;;4.90;2.00;;;;;;;-1.75;51.82;101366.77;108406;1274;73760;-72
2022/03/12 06:21:07;;;;;;;4.90;2.80;;;;;;;-1.63;51.66;101371.70;108390;1274;60345;-72
2022/03/12 06:23:34;;;;;;;4.30;2.40;;;;;;;-1.51;51.54;101374.71;108476;1273;61728;-72
2022/03/12 06:26:14;;;;;;;4.40;2.30;;;;;;;-1.40;51.52;101376.71;108354;1274;74795;-73
2022/03/12 06:28:43;;;;;;;4.80;2.30;;;;;;;-1.27;51.40;101382.11;108439;1273;72142;-73
2022/03/12 06:31:12;;;;;;;5.20;1.90;;;;;;;-1.15;51.02;101385.15;108386;1274;74121;-73
2022/03/12 06:33:41;;;;;;;4.80;2.50;;;;;;;-1.03;50.47;101387.08;108446;1273;60438;-73
2022/03/12 06:36:23;;;;;;;3.60;2.20;;;;;;;-0.90;49.67;101378.54;108345;1274;61295;-73
2022/03/12 06:39:00;;;;;;;7.30;2.90;;;;;;;-0.74;49.51;101384.27;108204;1273;72784;-73
2022/03/12 06:41:26;;;;;;;6.90;2.70;;;;;;;-0.59;49.42;101386.25;108407;1274;71322;-73
2022/03/12 06:43:54;;;;;;;7.60;3.00;;;;;;;-0.47;48.78;101394.04;108475;1273;71983;-73
2022/03/12 06:46:21;;;;;;;5.30;2.20;;;;;;;-0.35;48.49;101394.77;108444;1272;60591;-73
2022/03/12 06:48:49;;;;;;;5.90;3.20;;;;;;;-0.25;48.37;101395.40;108218;1274;60411;-73
2022/03/12 06:51:16;;;;;;;7.80;2.30;;;;;;;-0.15;48.41;101393.64;108441;1273;73457;-72
2022/03/12 06:53:42;;;;;;;5.80;2.90;;;;;;;-0.06;47.87;101395.91;108480;1273;70101;-72
2022/03/12 06:56:09;;;;;;;6.30;2.30;;;;;;;0.03;47.55;101399.20;108357;1274;73098;-72
2022/03/12 06:58:39;;;;;;;5.90;3.00;;;;;;;0.10;46.99;101407.84;108355;1273;59833;-73
2022/03/12 07:01:06;;;;;;;6.60;2.80;;;;;;;0.16;47.35;101406.94;108431;1273;59476;-73
2022/03/12 07:03:33;;;;;;;4.50;2.60;;;;;;;0.21;47.29;101405.96;108335;1273;75219;-72
2022/03/12 07:06:00;;;;;;;5.30;2.60;;;;;;;0.26;47.30;101407.92;107970;1276;72246;-72
2022/03/12 07:08:26;;;;;;;6.00;2.90;;;;;;;0.29;46.52;101408.99;108384;1273;58391;-73
2022/03/12 07:10:59;;;;;;;4.60;2.60;;;;;;;0.33;46.28;101413.09;108299;1274;59909;-72
2022/03/12 07:13:35;;;;;;;8.00;3.30;;;;;;;0.36;45.75;101410.30;108354;1273;60588;-73
2022/03/12 07:16:10;;;;;;;6.70;2.60;;;;;;;0.38;45.75;101410.86;108387;1273;74135;-73
2022/03/12 07:18:38;;;;;;;7.40;2.80;;;;;;;0.41;45.34;101410.70;108406;1273;70751;-72
2022/03/12 07:21:08;;;;;;;6.00;2.40;;;;;;;0.44;45.35;101410.73;108179;1274;73022;-73
2022/03/12 07:23:35;;;;;;;5.50;2.20;;;;;;;0.47;45.25;101415.08;108399;1273;61152;-73
2022/03/12 07:26:01;;;;;;;7.30;2.90;;;;;;;0.50;45.60;101413.27;108412;1273;60522;-73
2022/03/12 07:28:31;;;;;;;4.90;2.80;;;;;;;0.55;45.66;101418.25;108165;1274;74051;-74
2022/03/12 07:30:59;;;;;;;4.70;2.40;;;;;;;0.59;45.77;101420.26;108159;1274;71590;-72
2022/03/12 07:33:31;;;;;;;4.60;1.90;;;;;;;0.63;46.02;101423.33;108279;1273;74053;-72
2022/03/12 07:35:58;;;;;;;5.60;2.70;;;;;;;0.66;46.04;101423.11;108379;1274;60062;-74
2022/03/12 07:38:25;;;;;;;5.30;3.00;;;;;;;0.70;46.08;101421.36;108424;1273;59428;-72
2022/03/12 07:40:57;;;;;;;3.70;2.30;;;;;;;0.73;46.26;101422.34;108392;1273;75121;-74
2022/03/12 07:43:24;;;;;;;5.00;2.90;;;;;;;0.78;46.10;101427.98;108253;1274;72107;-73
2022/03/12 07:45:58;;;;;;;7.30;2.70;;;;;;;0.83;45.90;101430.46;108365;1273;73966;-68
2022/03/12 07:51:13;;;;;;;4.70;2.60;;;;;;;1.00;45.48;101435.35;107669;1274;60866;-69
2022/03/12 07:53:43;;;;;;;4.60;2.60;;;;;;;1.10;45.12;101435.41;107716;1279;74284;-70
2022/03/12 07:56:11;;;;;;;7.10;2.80;;;;;;;1.20;45.02;101439.30;107704;1279;72288;-69
2022/03/12 07:58:38;;;;;;;7.50;2.10;;;;;;;1.32;45.27;101440.34;107686;1281;73149;-69
2022/03/12 08:01:09;;;;;;;6.20;3.60;;;;;;;1.43;45.26;101442.75;107478;1282;60699;-66
2022/03/12 08:03:40;;;;;;;6.50;3.40;;;;;;;1.55;45.28;101438.35;107508;1279;60062;-68
2022/03/12 08:06:08;;;;;;;4.80;2.90;;;;;;;1.70;44.46;101434.10;107771;1279;74384;-69
2022/03/12 08:08:34;;;;;;;7.50;3.00;;;;;;;1.83;43.93;101434.96;107521;1281;72422;-68
2022/03/12 08:13:48;;;;;;;6.80;3.00;;;;;;;2.13;43.29;101436.82;107789;1279;59915;-67
2022/03/12 08:16:15;;;;;;;5.70;2.80;;;;;;;2.26;42.89;101428.80;107807;1279;62013;-69
2022/03/12 08:18:44;;;;;;;5.50;3.00;;;;;;;2.39;42.57;101428.14;107809;1279;73666;-67
2022/03/12 08:21:12;;;;;;;5.10;2.70;;;;;;;2.50;42.29;101432.98;107719;1281;71547;-67
2022/03/12 08:23:39;;;;;;;5.30;3.10;;;;;;;2.64;42.11;101437.58;107755;1279;74046;-69
2022/03/12 08:26:09;;;;;;;5.00;2.90;;;;;;;2.79;41.70;101438.97;107828;1279;59670;-69
2022/03/12 08:28:36;;;;;;;6.30;3.20;;;;;;;2.93;41.67;101433.66;107773;1279;60424;-68
2022/03/12 08:31:12;;;;;;;6.10;2.80;;;;;;;3.08;41.36;101431.55;107813;1279;75302;-67
2022/03/12 08:33:39;;;;;;;6.20;3.10;;;;;;;3.25;40.58;101430.71;107820;1279;72462;-68
2022/03/12 08:36:06;;;;;;;4.80;2.60;;;;;;;3.45;40.32;101427.89;107493;1281;74352;-68
2022/03/12 08:38:35;;;;;;;6.40;2.20;;;;;;;3.62;38.26;101427.71;107835;1279;59154;-69
2022/03/12 08:41:08;;;;;;;5.40;2.20;;;;;;;3.78;37.08;101431.45;107501;1279;61272;-68
2022/03/12 08:43:47;;;;;;;5.60;2.60;;;;;;;3.93;36.53;101436.27;107650;1279;75500;-69
2022/03/12 08:46:14;;;;;;;4.40;2.40;;;;;;;4.10;36.23;101423.67;107469;1280;72372;-69
2022/03/12 08:48:55;;;;;;;6.10;2.90;;;;;;;4.26;35.89;101422.44;107440;1282;73068;-72
2022/03/12 08:51:23;;;;;;;5.10;2.20;;;;;;;4.47;35.89;101421.41;107349;1281;60301;-71
2022/03/12 08:53:49;;;;;;;8.10;3.40;;;;;;;4.65;35.36;101422.64;107754;1281;60653;-73
2022/03/12 08:56:19;;;;;;;6.10;2.80;;;;;;;4.84;34.86;101423.96;107755;1281;74145;-73
2022/03/12 08:58:47;;;;;;;5.70;3.10;;;;;;;5.01;34.09;101419.11;107772;1281;71432;-69
2022/03/12 09:01:14;;;;;;;6.00;2.30;;;;;;;5.15;34.14;101420.45;107753;1281;72988;-68
2022/03/12 09:03:41;;;;;;;5.80;3.20;;;;;;;5.28;33.69;101418.41;107702;1281;60607;-68
2022/03/12 09:06:07;;;;;;;4.50;2.40;;;;;;;5.41;33.53;101414.24;107742;1280;60679;-70
2022/03/12 09:08:34;;;;;;;4.90;2.10;;;;;;;5.52;33.11;101411.21;107755;1281;74193;-70
2022/03/12 09:11:01;;;;;;;6.00;2.60;;;;;;;5.62;32.26;101411.11;107361;1282;72404;-69
2022/03/12 09:13:28;;;;;;;6.30;3.00;;;;;;;5.73;32.45;101406.13;107535;1281;73129;-70
2022/03/12 09:15:58;;;;;;;5.20;2.30;;;;;;;5.83;31.57;101401.34;107732;1280;58517;-69
2022/03/12 09:18:34;;;;;;;3.40;1.90;;;;;;;5.95;31.38;101405.10;107638;1281;60350;-69
2022/03/12 09:21:00;;;;;;;5.30;3.10;;;;;;;6.08;32.13;101401.92;107747;1281;75144;-69
2022/03/12 09:23:27;;;;;;;5.10;2.40;;;;;;;6.23;31.73;101405.29;107682;1281;71421;-71
2022/03/12 09:25:53;;;;;;;6.20;2.60;;;;;;;6.35;31.50;101401.61;107741;1281;73005;-71
2022/03/12 09:28:20;;;;;;;4.30;2.50;;;;;;;6.48;31.32;101402.90;107774;1281;59801;-70
2022/03/12 09:30:52;;;;;;;4.50;2.40;;;;;;;6.60;30.83;101400.70;107516;1281;59859;-70
2022/03/12 09:33:23;;;;;;;5.50;3.00;;;;;;;6.68;30.58;101397.73;107661;1281;73700;-70
2022/03/12 09:35:58;;;;;;;5.20;2.70;;;;;;;6.76;30.87;101392.77;107508;1281;70574;-70
2022/03/12 09:38:25;;;;;;;7.80;3.30;;;;;;;6.87;30.76;101392.02;107746;1281;74132;-69
2022/03/12 09:40:51;;;;;;;5.60;3.00;;;;;;;6.99;31.02;101393.98;107802;1281;60912;-70
2022/03/12 09:43:18;;;;;;;5.90;3.00;;;;;;;7.13;30.88;101392.09;107733;1281;58429;-71
2022/03/12 09:45:45;;;;;;;9.30;3.30;;;;;;;7.29;30.83;101396.11;107538;1281;58921;-71
2022/03/12 09:48:25;;;;;;;5.90;3.10;;;;;;;7.43;30.23;101391.99;107612;1281;71132;-69
2022/03/12 09:50:51;;;;;;;4.50;2.70;;;;;;;7.54;30.37;101395.48;107739;1281;73081;-70
2022/03/12 09:53:18;;;;;;;6.50;3.00;;;;;;;7.59;30.19;101390.42;107735;1281;59684;-70
2022/03/12 09:55:44;;;;;;;8.00;3.60;;;;;;;7.68;29.64;101391.92;107618;1281;60560;-70
2022/03/12 09:58:11;;;;;;;7.50;3.00;;;;;;;7.79;30.19;101383.36;107723;1271;74066;-71
2022/03/12 10:00:37;;;;;;;6.20;3.00;;;;;;;7.90;30.18;101381.30;107632;1281;70424;-69
2022/03/12 10:03:05;;;;;;;9.40;4.00;;;;;;;8.00;29.79;101381.56;107850;1280;74087;-70
2022/03/12 10:05:32;;;;;;;7.40;3.90;;;;;;;8.08;29.91;101376.08;107848;1280;60888;-72
2022/03/12 10:07:59;;;;;;;7.30;3.30;;;;;;;8.19;29.97;101378.45;107896;1281;59095;-71
2022/03/12 10:10:32;;;;;;;5.80;2.90;;;;;;;8.33;30.41;101378.68;107752;1281;75648;-71
2022/03/12 10:12:58;;;;;;;8.10;3.20;;;;;;;8.49;30.11;101375.34;107852;1280;72995;-70
2022/03/12 10:15:25;;;;;;;4.10;2.70;;;;;;;8.60;29.80;101371.64;107768;1281;73083;-72
2022/03/12 10:17:52;;;;;;;5.50;3.30;;;;;;;8.71;30.03;101376.05;107516;1281;59581;-71
2022/03/12 10:20:23;;;;;;;9.10;3.30;;;;;;;8.78;29.43;101376.80;107892;1280;60784;-72
2022/03/12 10:22:50;;;;;;;8.40;3.50;;;;;;;8.84;29.27;101375.69;107759;1281;74554;-71
2022/03/12 10:25:17;;;;;;;7.90;3.80;;;;;;;8.91;29.19;101375.60;107434;1281;71454;-70
2022/03/12 10:27:43;;;;;;;6.10;3.30;;;;;;;8.97;29.13;101374.42;107814;1279;72062;-70
2022/03/12 10:30:11;;;;;;;6.20;3.40;;;;;;;9.02;29.26;101368.48;106595;1281;1400690;-70
2022/03/12 10:32:45;;;;;;;6.30;2.60;;;;;;;9.14;29.23;101370.21;107803;1281;60594;-70
2022/03/12 10:35:14;;;;;;;6.60;3.10;;;;;;;9.27;29.10;101370.45;107796;1281;75235;-70
2022/03/12 10:37:44;;;;;;;5.20;3.40;;;;;;;9.38;29.13;101366.55;107805;1281;71383;-69
2022/03/12 10:40:16;;;;;;;7.80;3.30;;;;;;;9.49;28.52;101363.64;107397;1281;72938;-70
2022/03/12 10:42:57;;;;;;;5.50;3.00;;;;;;;9.61;28.47;101364.18;107469;1281;60816;-68
2022/03/12 10:45:30;;;;;;;7.30;3.70;;;;;;;9.73;28.49;101367.88;107654;1281;60331;-68
2022/03/12 10:48:02;;;;;;;6.10;3.60;;;;;;;9.85;28.33;101370.41;107750;1281;74295;-68
2022/03/12 10:50:52;;;;;;;6.10;3.60;;;;;;;10.00;28.50;101369.60;107640;1281;70512;-68
2022/03/12 10:53:19;;;;;;;5.90;3.20;;;;;;;10.18;28.67;101366.05;107593;1281;72079;-72
2022/03/12 10:55:50;;;;;;;6.60;3.70;;;;;;;10.29;28.06;101368.81;107466;1284;59453;-71
2022/03/12 10:58:23;;;;;;;6.30;3.60;;;;;;;10.44;28.58;101370.11;107582;1281;60627;-72
2022/03/12 11:00:54;;;;;;;7.20;2.30;;;;;;;10.55;27.66;101376.63;107639;1281;74582;-69
2022/03/12 11:03:24;;;;;;;6.00;2.90;;;;;;;10.54;27.27;101375.47;107800;1281;72377;-71
2022/03/12 11:05:53;;;;;;;5.30;3.50;;;;;;;10.61;27.71;101372.85;107742;1281;72999;-70
2022/03/12 11:08:22;;;;;;;7.20;3.30;;;;;;;10.71;28.08;101364.41;107741;1280;60565;-70
2022/03/12 11:10:50;;;;;;;6.90;3.90;;;;;;;10.84;28.30;101361.56;107772;1281;60043;-71
2022/03/12 11:13:40;;;;;;;7.40;2.90;;;;;;;10.95;28.28;101357.92;107748;1281;75025;-69
2022/03/12 11:16:32;;;;;;;8.10;4.20;;;;;;;11.03;28.02;101356.55;107733;1281;72128;-71
2022/03/12 11:19:08;;;;;;;6.40;3.50;;;;;;;11.15;28.45;101361.57;107742;1280;73412;-71
2022/03/12 11:21:39;;;;;;;9.30;6.00;;;;;;;11.30;27.87;101353.27;107435;1281;60358;-71
2022/03/12 11:24:13;;;;;;;7.60;3.90;;;;;;;11.45;28.01;101361.20;107773;1281;60666;-71
2022/03/12 11:26:43;;;;;;;11.80;6.00;;;;;;;11.57;27.62;101358.90;107741;1281;74203;-69
2022/03/12 11:29:11;;;;;;;9.80;4.00;;;;;;;11.56;26.82;101358.81;107806;1281;71951;-70
2022/03/12 11:31:51;;;;;;;5.90;3.90;;;;;;;11.59;27.17;101355.13;107836;1281;72850;-71
2022/03/12 11:34:24;;;;;;;6.90;3.80;;;;;;;11.62;27.06;101355.59;107727;1281;60647;-71
2022/03/12 11:36:56;;;;;;;6.10;3.80;;;;;;;11.67;27.19;101351.01;107753;1281;60621;-72
2022/03/12 11:39:33;;;;;;;6.70;3.10;;;;;;;11.75;27.08;101342.57;107522;1281;76006;-70